sensor_id;sensor_type;location;lat;lon;timestamp;pressure;altitude;pressure_sealevel;temperature;humidity
50011;BME280;35899;50.352;19.390;2023-03-15T00:01:21;96430.95;;;5.81;94.50
50011;BME280;35899;50.352;19.390;2023-03-15T00:03:47;96441.34;;;5.67;93.08
50011;BME280;35899;50.352;19.390;2023-03-15T00:06:14;96456.61;;;5.50;92.52
50011;BME280;35899;50.352;19.390;2023-03-15T00:08:40;96465.63;;;5.39;92.43
50011;BME280;35899;50.352;19.390;2023-03-15T00:11:07;96480.42;;;5.27;91.54
50011;BME280;35899;50.352;19.390;2023-03-15T00:13:33;96491.92;;;5.15;91.39
50011;BME280;35899;50.352;19.390;2023-03-15T00:16:00;96500.00;;;5.10;91.59
50011;BME280;35899;50.352;19.390;2023-03-15T00:18:27;96503.08;;;5.02;91.22
50011;BME280;35899;50.352;19.390;2023-03-15T00:20:53;96516.39;;;4.93;90.78
50011;BME280;35899;50.352;19.390;2023-03-15T00:23:20;96544.69;;;4.84;90.79
50011;BME280;35899;50.352;19.390;2023-03-15T00:25:47;96548.84;;;4.73;90.59
50011;BME280;35899;50.352;19.390;2023-03-15T00:28:13;96565.66;;;4.62;90.41
50011;BME280;35899;50.352;19.390;2023-03-15T00:30:40;96577.94;;;4.53;90.19
50011;BME280;35899;50.352;19.390;2023-03-15T00:33:06;96596.27;;;4.45;90.07
50011;BME280;35899;50.352;19.390;2023-03-15T00:35:36;96605.83;;;4.38;89.65
50011;BME280;35899;50.352;19.390;2023-03-15T00:38:03;96617.88;;;4.24;88.32
50011;BME280;35899;50.352;19.390;2023-03-15T00:40:30;96619.92;;;4.11;87.77
50011;BME280;35899;50.352;19.390;2023-03-15T00:42:56;96626.88;;;3.99;87.78
50011;BME280;35899;50.352;19.390;2023-03-15T00:45:23;96634.75;;;3.91;87.69
50011;BME280;35899;50.352;19.390;2023-03-15T00:47:50;96637.97;;;3.83;87.90
50011;BME280;35899;50.352;19.390;2023-03-15T00:50:16;96653.59;;;3.77;87.90
50011;BME280;35899;50.352;19.390;2023-03-15T00:52:43;96661.93;;;3.69;87.82
50011;BME280;35899;50.352;19.390;2023-03-15T00:55:12;96670.23;;;3.65;88.12
50011;BME280;35899;50.352;19.390;2023-03-15T00:57:40;96688.04;;;3.62;88.15
50011;BME280;35899;50.352;19.390;2023-03-15T01:00:07;96691.88;;;3.55;86.87
50011;BME280;35899;50.352;19.390;2023-03-15T01:02:34;96706.44;;;3.46;86.76
50011;BME280;35899;50.352;19.390;2023-03-15T01:05:01;96708.70;;;3.37;86.00
50011;BME280;35899;50.352;19.390;2023-03-15T01:07:27;96712.85;;;3.28;86.14
50011;BME280;35899;50.352;19.390;2023-03-15T01:09:54;96718.06;;;3.24;86.34
50011;BME280;35899;50.352;19.390;2023-03-15T01:12:20;96728.27;;;3.22;86.29
50011;BME280;35899;50.352;19.390;2023-03-15T01:14:46;96733.16;;;3.20;86.51
50011;BME280;35899;50.352;19.390;2023-03-15T01:17:14;96744.56;;;3.18;86.65
50011;BME280;35899;50.352;19.390;2023-03-15T01:19:40;96753.14;;;3.21;87.07
50011;BME280;35899;50.352;19.390;2023-03-15T01:22:07;96765.70;;;3.25;87.34
50011;BME280;35899;50.352;19.390;2023-03-15T01:24:34;96774.60;;;3.30;87.46
50011;BME280;35899;50.352;19.390;2023-03-15T01:27:00;96784.98;;;3.31;87.49
50011;BME280;35899;50.352;19.390;2023-03-15T01:29:27;96780.31;;;3.29;87.25
50011;BME280;35899;50.352;19.390;2023-03-15T01:31:53;96777.80;;;3.26;87.31
50011;BME280;35899;50.352;19.390;2023-03-15T01:34:20;96776.63;;;3.22;87.23
50011;BME280;35899;50.352;19.390;2023-03-15T01:36:48;96785.16;;;3.17;87.24
50011;BME280;35899;50.352;19.390;2023-03-15T01:39:15;96779.17;;;3.11;87.13
50011;BME280;35899;50.352;19.390;2023-03-15T01:41:43;96782.57;;;3.05;87.19
50011;BME280;35899;50.352;19.390;2023-03-15T01:44:14;96786.16;;;3.00;86.98
50011;BME280;35899;50.352;19.390;2023-03-15T01:46:41;96791.90;;;2.98;87.16
50011;BME280;35899;50.352;19.390;2023-03-15T01:49:14;96809.11;;;2.96;87.14
50011;BME280;35899;50.352;19.390;2023-03-15T01:55:31;96820.42;;;2.92;87.39
50011;BME280;35899;50.352;19.390;2023-03-15T01:58:00;96811.15;;;2.90;87.32
50011;BME280;35899;50.352;19.390;2023-03-15T02:00:29;96822.67;;;2.85;87.22
50011;BME280;35899;50.352;19.390;2023-03-15T02:02:59;96821.49;;;2.82;87.25
50011;BME280;35899;50.352;19.390;2023-03-15T02:05:30;96823.10;;;2.81;87.46
50011;BME280;35899;50.352;19.390;2023-03-15T02:08:00;96818.66;;;2.81;87.30
50011;BME280;35899;50.352;19.390;2023-03-15T02:10:34;96821.02;;;2.79;87.08
50011;BME280;35899;50.352;19.390;2023-03-15T02:13:02;96832.11;;;2.76;86.89
50011;BME280;35899;50.352;19.390;2023-03-15T02:15:29;96823.73;;;2.76;87.38
50011;BME280;35899;50.352;19.390;2023-03-15T02:17:57;96817.15;;;2.78;87.55
50011;BME280;35899;50.352;19.390;2023-03-15T02:23:00;96823.45;;;2.78;87.59
50011;BME280;35899;50.352;19.390;2023-03-15T02:27:56;96828.45;;;2.68;87.48
50011;BME280;35899;50.352;19.390;2023-03-15T02:30:23;96839.77;;;2.64;87.43
50011;BME280;35899;50.352;19.390;2023-03-15T02:32:49;96859.55;;;2.62;87.27
50011;BME280;35899;50.352;19.390;2023-03-15T02:35:26;96863.08;;;2.59;87.07
50011;BME280;35899;50.352;19.390;2023-03-15T02:37:53;96860.43;;;2.58;86.95
50011;BME280;35899;50.352;19.390;2023-03-15T02:40:20;96861.48;;;2.58;87.26
50011;BME280;35899;50.352;19.390;2023-03-15T02:42:47;96863.95;;;2.56;87.08
50011;BME280;35899;50.352;19.390;2023-03-15T02:45:16;96866.84;;;2.56;87.26
50011;BME280;35899;50.352;19.390;2023-03-15T02:47:43;96864.97;;;2.56;87.23
50011;BME280;35899;50.352;19.390;2023-03-15T02:50:10;96859.55;;;2.55;87.26
50011;BME280;35899;50.352;19.390;2023-03-15T02:52:36;96854.69;;;2.53;87.17
50011;BME280;35899;50.352;19.390;2023-03-15T02:55:03;96859.94;;;2.54;86.98
50011;BME280;35899;50.352;19.390;2023-03-15T02:57:29;96859.16;;;2.53;87.00
50011;BME280;35899;50.352;19.390;2023-03-15T02:59:56;96863.33;;;2.51;86.73
50011;BME280;35899;50.352;19.390;2023-03-15T03:02:23;96863.60;;;2.50;86.99
50011;BME280;35899;50.352;19.390;2023-03-15T03:04:49;96862.48;;;2.48;86.81
50011;BME280;35899;50.352;19.390;2023-03-15T03:07:17;96860.13;;;2.48;86.91
50011;BME280;35899;50.352;19.390;2023-03-15T03:09:57;96866.08;;;2.45;86.49
50011;BME280;35899;50.352;19.390;2023-03-15T03:12:24;96870.52;;;2.42;86.50
50011;BME280;35899;50.352;19.390;2023-03-15T03:14:50;96876.98;;;2.42;86.80
50011;BME280;35899;50.352;19.390;2023-03-15T03:17:19;96885.16;;;2.43;86.57
50011;BME280;35899;50.352;19.390;2023-03-15T03:19:46;96889.30;;;2.42;86.64
50011;BME280;35899;50.352;19.390;2023-03-15T03:22:13;96888.05;;;2.43;86.73
50011;BME280;35899;50.352;19.390;2023-03-15T03:24:39;96891.88;;;2.42;86.42
50011;BME280;35899;50.352;19.390;2023-03-15T03:27:06;96902.00;;;2.41;86.46
50011;BME280;35899;50.352;19.390;2023-03-15T03:29:34;96911.36;;;2.41;86.12
50011;BME280;35899;50.352;19.390;2023-03-15T03:32:00;96916.60;;;2.39;85.66
50011;BME280;35899;50.352;19.390;2023-03-15T03:34:27;96921.74;;;2.35;85.05
50011;BME280;35899;50.352;19.390;2023-03-15T03:36:54;96927.98;;;2.33;85.23
50011;BME280;35899;50.352;19.390;2023-03-15T03:39:29;96936.09;;;2.32;84.92
50011;BME280;35899;50.352;19.390;2023-03-15T03:41:59;96937.40;;;2.29;84.96
50011;BME280;35899;50.352;19.390;2023-03-15T03:44:25;96940.73;;;2.28;84.72
50011;BME280;35899;50.352;19.390;2023-03-15T03:46:51;96937.79;;;2.25;84.24
50011;BME280;35899;50.352;19.390;2023-03-15T03:49:17;96937.17;;;2.24;84.43
50011;BME280;35899;50.352;19.390;2023-03-15T03:51:45;96948.45;;;2.24;84.49
50011;BME280;35899;50.352;19.390;2023-03-15T03:54:12;96964.15;;;2.24;84.33
50011;BME280;35899;50.352;19.390;2023-03-15T03:56:38;96964.89;;;2.23;84.18
50011;BME280;35899;50.352;19.390;2023-03-15T03:59:04;96960.60;;;2.24;84.25
50011;BME280;35899;50.352;19.390;2023-03-15T04:01:41;96967.59;;;2.24;84.10
50011;BME280;35899;50.352;19.390;2023-03-15T04:04:07;96969.08;;;2.24;84.13
50011;BME280;35899;50.352;19.390;2023-03-15T04:06:33;96970.90;;;2.26;84.17
50011;BME280;35899;50.352;19.390;2023-03-15T04:09:00;96964.24;;;2.26;83.98
50011;BME280;35899;50.352;19.390;2023-03-15T04:11:34;96972.09;;;2.26;83.85
50011;BME280;35899;50.352;19.390;2023-03-15T04:14:03;96973.98;;;2.26;83.87
50011;BME280;35899;50.352;19.390;2023-03-15T04:16:29;96979.52;;;2.24;83.66
50011;BME280;35899;50.352;19.390;2023-03-15T04:19:00;96982.42;;;2.24;83.90
50011;BME280;35899;50.352;19.390;2023-03-15T04:21:29;96987.05;;;2.24;83.77
50011;BME280;35899;50.352;19.390;2023-03-15T04:23:58;96988.46;;;2.23;83.59
50011;BME280;35899;50.352;19.390;2023-03-15T04:26:47;96991.89;;;2.23;83.88
50011;BME280;35899;50.352;19.390;2023-03-15T04:29:33;96990.45;;;2.24;83.79
50011;BME280;35899;50.352;19.390;2023-03-15T04:32:26;96997.36;;;2.25;84.02
50011;BME280;35899;50.352;19.390;2023-03-15T04:35:25;97000.96;;;2.29;84.18
50011;BME280;35899;50.352;19.390;2023-03-15T04:37:59;97005.09;;;2.28;83.94
50011;BME280;35899;50.352;19.390;2023-03-15T04:40:32;97003.09;;;2.27;83.84
50011;BME280;35899;50.352;19.390;2023-03-15T04:43:11;97008.58;;;2.30;84.06
50011;BME280;35899;50.352;19.390;2023-03-15T04:45:45;97008.64;;;2.29;83.84
50011;BME280;35899;50.352;19.390;2023-03-15T04:48:30;97007.48;;;2.28;83.89
50011;BME280;35899;50.352;19.390;2023-03-15T04:51:16;97004.35;;;2.29;84.02
50011;BME280;35899;50.352;19.390;2023-03-15T04:54:02;97001.95;;;2.29;84.06
50011;BME280;35899;50.352;19.390;2023-03-15T04:56:51;97002.20;;;2.31;84.20
50011;BME280;35899;50.352;19.390;2023-03-15T04:59:31;97005.04;;;2.32;84.29
50011;BME280;35899;50.352;19.390;2023-03-15T05:02:18;97002.48;;;2.32;84.09
50011;BME280;35899;50.352;19.390;2023-03-15T05:05:01;97001.19;;;2.31;84.08
50011;BME280;35899;50.352;19.390;2023-03-15T05:07:41;96999.55;;;2.29;84.01
50011;BME280;35899;50.352;19.390;2023-03-15T05:10:23;97005.81;;;2.27;83.99
50011;BME280;35899;50.352;19.390;2023-03-15T05:13:04;97003.32;;;2.26;83.91
50011;BME280;35899;50.352;19.390;2023-03-15T05:15:47;97004.95;;;2.24;83.76
50011;BME280;35899;50.352;19.390;2023-03-15T05:18:35;97009.24;;;2.21;83.64
50011;BME280;35899;50.352;19.390;2023-03-15T05:21:07;97014.05;;;2.16;83.55
50011;BME280;35899;50.352;19.390;2023-03-15T05:23:43;97020.01;;;2.13;83.70
50011;BME280;35899;50.352;19.390;2023-03-15T05:26:32;97035.56;;;2.13;83.73
50011;BME280;35899;50.352;19.390;2023-03-15T05:32:25;97041.96;;;2.14;83.78
50011;BME280;35899;50.352;19.390;2023-03-15T05:35:21;97039.81;;;2.17;83.97
50011;BME280;35899;50.352;19.390;2023-03-15T05:38:08;97047.42;;;2.18;83.78
50011;BME280;35899;50.352;19.390;2023-03-15T05:40:53;97058.22;;;2.21;83.96
50011;BME280;35899;50.352;19.390;2023-03-15T05:43:38;97064.53;;;2.24;83.88
50011;BME280;35899;50.352;19.390;2023-03-15T05:46:33;97061.16;;;2.23;83.67
50011;BME280;35899;50.352;19.390;2023-03-15T05:49:20;97066.81;;;2.23;83.74
50011;BME280;35899;50.352;19.390;2023-03-15T05:52:06;97068.96;;;2.21;83.38
50011;BME280;35899;50.352;19.390;2023-03-15T05:54:51;97071.45;;;2.22;83.62
50011;BME280;35899;50.352;19.390;2023-03-15T05:57:36;97071.28;;;2.22;83.32
50011;BME280;35899;50.352;19.390;2023-03-15T06:00:35;97072.80;;;2.22;83.42
50011;BME280;35899;50.352;19.390;2023-03-15T06:03:03;97072.97;;;2.26;83.38
50011;BME280;35899;50.352;19.390;2023-03-15T06:05:35;97073.34;;;2.29;83.35
50011;BME280;35899;50.352;19.390;2023-03-15T06:08:03;97078.64;;;2.29;83.06
50011;BME280;35899;50.352;19.390;2023-03-15T06:10:30;97083.91;;;2.32;83.19
50011;BME280;35899;50.352;19.390;2023-03-15T06:12:58;97083.98;;;2.35;83.01
50011;BME280;35899;50.352;19.390;2023-03-15T06:15:24;97091.20;;;2.41;83.12
50011;BME280;35899;50.352;19.390;2023-03-15T06:17:52;97102.73;;;2.46;82.94
50011;BME280;35899;50.352;19.390;2023-03-15T06:20:18;97114.61;;;2.50;82.66
50011;BME280;35899;50.352;19.390;2023-03-15T06:22:45;97118.98;;;2.55;83.06
50011;BME280;35899;50.352;19.390;2023-03-15T06:25:22;97124.06;;;2.59;82.50
50011;BME280;35899;50.352;19.390;2023-03-15T06:27:49;97133.52;;;2.61;82.35
50011;BME280;35899;50.352;19.390;2023-03-15T06:30:19;97144.61;;;2.65;82.39
50011;BME280;35899;50.352;19.390;2023-03-15T06:32:47;97150.23;;;2.69;82.39
50011;BME280;35899;50.352;19.390;2023-03-15T06:35:13;97153.26;;;2.69;81.53
50011;BME280;35899;50.352;19.390;2023-03-15T06:37:39;97156.63;;;2.67;81.20
50011;BME280;35899;50.352;19.390;2023-03-15T06:40:06;97156.52;;;2.62;81.18
50011;BME280;35899;50.352;19.390;2023-03-15T06:42:33;97162.70;;;2.62;81.50
50011;BME280;35899;50.352;19.390;2023-03-15T06:44:59;97168.34;;;2.65;81.57
50011;BME280;35899;50.352;19.390;2023-03-15T06:47:26;97172.20;;;2.70;81.52
50011;BME280;35899;50.352;19.390;2023-03-15T06:49:52;97177.79;;;2.74;81.19
50011;BME280;35899;50.352;19.390;2023-03-15T06:52:21;97191.48;;;2.81;81.08
50011;BME280;35899;50.352;19.390;2023-03-15T06:54:47;97193.24;;;2.86;80.81
50011;BME280;35899;50.352;19.390;2023-03-15T06:57:14;97194.52;;;2.91;79.88
50011;BME280;35899;50.352;19.390;2023-03-15T06:59:40;97191.98;;;2.95;79.53
50011;BME280;35899;50.352;19.390;2023-03-15T07:02:14;97190.37;;;3.02;79.66
50011;BME280;35899;50.352;19.390;2023-03-15T07:04:41;97200.63;;;3.12;79.54
50011;BME280;35899;50.352;19.390;2023-03-15T07:07:07;97206.10;;;3.19;78.85
50011;BME280;35899;50.352;19.390;2023-03-15T07:09:33;97218.65;;;3.24;78.76
50011;BME280;35899;50.352;19.390;2023-03-15T07:12:00;97219.65;;;3.31;78.64
50011;BME280;35899;50.352;19.390;2023-03-15T07:14:26;97219.63;;;3.45;78.26
50011;BME280;35899;50.352;19.390;2023-03-15T07:16:52;97226.59;;;3.56;77.89
50011;BME280;35899;50.352;19.390;2023-03-15T07:19:19;97226.40;;;3.65;77.83
50011;BME280;35899;50.352;19.390;2023-03-15T07:21:45;97231.06;;;3.81;77.51
50011;BME280;35899;50.352;19.390;2023-03-15T07:24:11;97228.39;;;3.96;77.27
50011;BME280;35899;50.352;19.390;2023-03-15T07:26:37;97229.00;;;4.09;77.13
50011;BME280;35899;50.352;19.390;2023-03-15T07:29:04;97226.44;;;4.18;76.96
50011;BME280;35899;50.352;19.390;2023-03-15T07:31:30;97224.90;;;4.24;75.72
50011;BME280;35899;50.352;19.390;2023-03-15T07:33:56;97226.27;;;4.21;74.85
50011;BME280;35899;50.352;19.390;2023-03-15T07:36:23;97229.39;;;4.21;75.04
50011;BME280;35899;50.352;19.390;2023-03-15T07:38:49;97229.19;;;4.25;74.84
50011;BME280;35899;50.352;19.390;2023-03-15T07:41:15;97237.33;;;4.20;73.65
50011;BME280;35899;50.352;19.390;2023-03-15T07:43:51;97237.05;;;4.12;73.81
50011;BME280;35899;50.352;19.390;2023-03-15T07:46:18;97238.04;;;4.07;73.29
50011;BME280;35899;50.352;19.390;2023-03-15T07:48:44;97237.16;;;4.01;72.74
50011;BME280;35899;50.352;19.390;2023-03-15T07:51:10;97238.09;;;4.03;73.38
50011;BME280;35899;50.352;19.390;2023-03-15T07:53:37;97239.64;;;4.18;74.06
50011;BME280;35899;50.352;19.390;2023-03-15T07:56:03;97239.67;;;4.33;73.57
50011;BME280;35899;50.352;19.390;2023-03-15T07:58:30;97239.45;;;4.43;73.13
50011;BME280;35899;50.352;19.390;2023-03-15T08:00:56;97245.29;;;4.46;72.17
50011;BME280;35899;50.352;19.390;2023-03-15T08:03:23;97251.05;;;4.44;72.24
50011;BME280;35899;50.352;19.390;2023-03-15T08:05:49;97255.61;;;4.42;72.08
50011;BME280;35899;50.352;19.390;2023-03-15T08:08:16;97258.48;;;4.37;71.34
50011;BME280;35899;50.352;19.390;2023-03-15T08:10:43;97267.58;;;4.30;70.49
50011;BME280;35899;50.352;19.390;2023-03-15T08:13:09;97263.04;;;4.25;70.88
50011;BME280;35899;50.352;19.390;2023-03-15T08:15:36;97272.00;;;4.24;70.68
50011;BME280;35899;50.352;19.390;2023-03-15T08:18:02;97277.22;;;4.29;71.14
50011;BME280;35899;50.352;19.390;2023-03-15T08:20:32;97282.42;;;4.40;71.78
50011;BME280;35899;50.352;19.390;2023-03-15T08:22:58;97287.41;;;4.53;70.75
50011;BME280;35899;50.352;19.390;2023-03-15T08:25:25;97293.73;;;4.65;69.38
50011;BME280;35899;50.352;19.390;2023-03-15T08:27:51;97287.14;;;4.76;68.51
50011;BME280;35899;50.352;19.390;2023-03-15T08:30:18;97292.66;;;4.90;68.58
50011;BME280;35899;50.352;19.390;2023-03-15T08:32:45;97293.27;;;5.03;68.16
50011;BME280;35899;50.352;19.390;2023-03-15T08:35:13;97307.25;;;5.17;68.00
50011;BME280;35899;50.352;19.390;2023-03-15T08:37:41;97305.40;;;5.16;66.37
50011;BME280;35899;50.352;19.390;2023-03-15T08:40:08;97311.48;;;5.09;65.87
50011;BME280;35899;50.352;19.390;2023-03-15T08:42:35;97306.33;;;5.00;66.33
50011;BME280;35899;50.352;19.390;2023-03-15T08:45:03;97306.55;;;4.96;66.40
50011;BME280;35899;50.352;19.390;2023-03-15T08:47:30;97307.35;;;5.03;67.30
50011;BME280;35899;50.352;19.390;2023-03-15T08:49:57;97305.38;;;5.17;66.82
50011;BME280;35899;50.352;19.390;2023-03-15T08:52:23;97309.92;;;5.30;66.36
50011;BME280;35899;50.352;19.390;2023-03-15T08:54:49;97313.89;;;5.41;66.87
50011;BME280;35899;50.352;19.390;2023-03-15T08:57:15;97313.80;;;5.63;67.42
50011;BME280;35899;50.352;19.390;2023-03-15T08:59:42;97320.15;;;5.74;66.51
50011;BME280;35899;50.352;19.390;2023-03-15T09:02:09;97322.29;;;5.70;64.78
50011;BME280;35899;50.352;19.390;2023-03-15T09:04:35;97321.80;;;5.61;64.65
50011;BME280;35899;50.352;19.390;2023-03-15T09:07:02;97333.37;;;5.57;64.87
50011;BME280;35899;50.352;19.390;2023-03-15T09:09:28;97330.02;;;5.53;63.51
50011;BME280;35899;50.352;19.390;2023-03-15T09:11:54;97338.82;;;5.46;63.66
50011;BME280;35899;50.352;19.390;2023-03-15T09:14:20;97338.75;;;5.47;64.34
50011;BME280;35899;50.352;19.390;2023-03-15T09:16:47;97338.05;;;5.50;64.44
50011;BME280;35899;50.352;19.390;2023-03-15T09:19:13;97338.34;;;5.57;64.89
50011;BME280;35899;50.352;19.390;2023-03-15T09:21:40;97340.66;;;5.61;64.20
50011;BME280;35899;50.352;19.390;2023-03-15T09:24:07;97344.53;;;5.63;63.85
50011;BME280;35899;50.352;19.390;2023-03-15T09:26:33;97342.04;;;5.62;63.64
50011;BME280;35899;50.352;19.390;2023-03-15T09:29:00;97337.10;;;5.61;62.98
50011;BME280;35899;50.352;19.390;2023-03-15T09:31:26;97346.68;;;5.56;62.86
50011;BME280;35899;50.352;19.390;2023-03-15T09:33:52;97350.27;;;5.50;61.74
50011;BME280;35899;50.352;19.390;2023-03-15T09:36:19;97352.92;;;5.48;61.42
50011;BME280;35899;50.352;19.390;2023-03-15T09:38:45;97351.02;;;5.52;61.12
50011;BME280;35899;50.352;19.390;2023-03-15T09:41:19;97352.00;;;5.64;61.58
50011;BME280;35899;50.352;19.390;2023-03-15T09:43:57;97348.80;;;5.77;61.04
50011;BME280;35899;50.352;19.390;2023-03-15T09:53:58;97347.38;;;6.02;61.23
50011;BME280;35899;50.352;19.390;2023-03-15T09:58:53;97347.55;;;6.19;61.64
50011;BME280;35899;50.352;19.390;2023-03-15T10:01:23;97348.00;;;6.39;60.80
50011;BME280;35899;50.352;19.390;2023-03-15T10:03:51;97351.13;;;6.36;58.77
50011;BME280;35899;50.352;19.390;2023-03-15T10:06:19;97349.09;;;6.30;58.59
50011;BME280;35899;50.352;19.390;2023-03-15T10:08:46;97345.82;;;6.19;57.94
50011;BME280;35899;50.352;19.390;2023-03-15T10:11:14;97344.74;;;6.03;57.48
50011;BME280;35899;50.352;19.390;2023-03-15T10:23:52;97362.31;;;6.08;57.36
50011;BME280;35899;50.352;19.390;2023-03-15T10:26:21;97362.27;;;6.08;57.10
50011;BME280;35899;50.352;19.390;2023-03-15T10:28:50;97365.89;;;6.17;57.90
50011;BME280;35899;50.352;19.390;2023-03-15T10:31:19;97368.38;;;6.23;57.35
50011;BME280;35899;50.352;19.390;2023-03-15T10:33:58;97367.63;;;6.30;58.00
50011;BME280;35899;50.352;19.390;2023-03-15T10:36:25;97371.19;;;6.42;57.75
50011;BME280;35899;50.352;19.390;2023-03-15T10:38:51;97371.60;;;6.46;57.22
50011;BME280;35899;50.352;19.390;2023-03-15T10:41:37;97371.35;;;6.42;56.78
50011;BME280;35899;50.352;19.390;2023-03-15T10:44:06;97371.98;;;6.43;57.42
50011;BME280;35899;50.352;19.390;2023-03-15T10:46:33;97372.26;;;6.50;57.63
50011;BME280;35899;50.352;19.390;2023-03-15T10:51:30;97374.03;;;6.55;57.06
50011;BME280;35899;50.352;19.390;2023-03-15T10:53:57;97373.09;;;6.59;56.91
50011;BME280;35899;50.352;19.390;2023-03-15T10:56:25;97370.27;;;6.57;56.23
50011;BME280;35899;50.352;19.390;2023-03-15T10:58:53;97377.49;;;6.51;56.03
50011;BME280;35899;50.352;19.390;2023-03-15T11:01:37;97374.11;;;6.50;56.49
50011;BME280;35899;50.352;19.390;2023-03-15T11:06:31;97382.45;;;6.65;57.17
50011;BME280;35899;50.352;19.390;2023-03-15T11:09:10;97386.39;;;6.69;55.99
50011;BME280;35899;50.352;19.390;2023-03-15T11:11:47;97383.60;;;6.61;55.97
50011;BME280;35899;50.352;19.390;2023-03-15T11:14:14;97382.72;;;6.56;56.22
50011;BME280;35899;50.352;19.390;2023-03-15T11:16:40;97383.98;;;6.49;56.13
50011;BME280;35899;50.352;19.390;2023-03-15T11:19:14;97390.70;;;6.46;56.53
50011;BME280;35899;50.352;19.390;2023-03-15T11:21:41;97387.42;;;6.46;56.81
50011;BME280;35899;50.352;19.390;2023-03-15T11:24:09;97387.58;;;6.47;55.95
50011;BME280;35899;50.352;19.390;2023-03-15T11:26:43;97386.23;;;6.49;55.83
50011;BME280;35899;50.352;19.390;2023-03-15T11:29:13;97383.90;;;6.51;54.98
50011;BME280;35899;50.352;19.390;2023-03-15T11:31:43;97381.58;;;6.46;54.79
50011;BME280;35899;50.352;19.390;2023-03-15T11:36:43;97379.95;;;6.42;54.35
50011;BME280;35899;50.352;19.390;2023-03-15T11:39:14;97381.92;;;6.33;53.95
50011;BME280;35899;50.352;19.390;2023-03-15T11:41:46;97377.15;;;6.35;54.42
50011;BME280;35899;50.352;19.390;2023-03-15T11:46:44;97380.98;;;6.53;54.21
50011;BME280;35899;50.352;19.390;2023-03-15T11:51:49;97381.61;;;6.71;54.89
50011;BME280;35899;50.352;19.390;2023-03-15T11:54:18;97381.41;;;6.82;54.54
50011;BME280;35899;50.352;19.390;2023-03-15T11:56:48;97380.69;;;6.85;55.18
50011;BME280;35899;50.352;19.390;2023-03-15T11:59:37;97379.56;;;6.84;54.66
50011;BME280;35899;50.352;19.390;2023-03-15T12:07:02;97383.94;;;6.77;54.82
50011;BME280;35899;50.352;19.390;2023-03-15T12:11:59;97388.48;;;6.87;54.38
50011;BME280;35899;50.352;19.390;2023-03-15T12:14:27;97398.97;;;6.84;53.45
50011;BME280;35899;50.352;19.390;2023-03-15T12:19:39;97400.51;;;6.60;53.05
50011;BME280;35899;50.352;19.390;2023-03-15T12:22:11;97398.55;;;6.47;53.35
50011;BME280;35899;50.352;19.390;2023-03-15T12:24:40;97401.48;;;6.39;53.33
50011;BME280;35899;50.352;19.390;2023-03-15T12:27:16;97404.13;;;6.40;54.08
50011;BME280;35899;50.352;19.390;2023-03-15T12:29:43;97403.30;;;6.59;54.67
50011;BME280;35899;50.352;19.390;2023-03-15T12:32:16;97401.89;;;6.87;53.89
50011;BME280;35899;50.352;19.390;2023-03-15T12:34:50;97404.91;;;6.91;53.83
50011;BME280;35899;50.352;19.390;2023-03-15T12:37:30;97410.32;;;6.90;53.53
50011;BME280;35899;50.352;19.390;2023-03-15T12:53:03;97415.06;;;7.10;52.12
50011;BME280;35899;50.352;19.390;2023-03-15T12:55:30;97416.93;;;6.86;52.40
50011;BME280;35899;50.352;19.390;2023-03-15T12:57:58;97420.91;;;6.78;52.54
50011;BME280;35899;50.352;19.390;2023-03-15T13:00:25;97421.59;;;6.75;52.82
50011;BME280;35899;50.352;19.390;2023-03-15T13:02:56;97423.01;;;6.72;53.11
50011;BME280;35899;50.352;19.390;2023-03-15T13:05:29;97429.65;;;6.81;52.41
50011;BME280;35899;50.352;19.390;2023-03-15T13:08:08;97433.13;;;6.85;52.63
50011;BME280;35899;50.352;19.390;2023-03-15T13:10:50;97438.95;;;6.86;52.32
50011;BME280;35899;50.352;19.390;2023-03-15T13:15:57;97443.20;;;6.70;51.76
50011;BME280;35899;50.352;19.390;2023-03-15T13:18:27;97449.42;;;6.58;51.40
50011;BME280;35899;50.352;19.390;2023-03-15T13:23:31;97450.65;;;6.55;52.25
50011;BME280;35899;50.352;19.390;2023-03-15T13:28:26;97457.33;;;6.75;52.46
50011;BME280;35899;50.352;19.390;2023-03-15T13:30:56;97454.81;;;6.82;52.25
50011;BME280;35899;50.352;19.390;2023-03-15T13:33:24;97450.44;;;7.03;52.46
50011;BME280;35899;50.352;19.390;2023-03-15T13:38:32;97445.70;;;7.45;51.76
50011;BME280;35899;50.352;19.390;2023-03-15T13:41:00;97459.30;;;7.34;50.87
50011;BME280;35899;50.352;19.390;2023-03-15T13:43:28;97468.25;;;7.10;50.12
50011;BME280;35899;50.352;19.390;2023-03-15T13:45:55;97468.57;;;6.88;50.29
50011;BME280;35899;50.352;19.390;2023-03-15T13:48:21;97470.05;;;6.72;50.90
50011;BME280;35899;50.352;19.390;2023-03-15T13:50:48;97473.89;;;6.63;51.19
50011;BME280;35899;50.352;19.390;2023-03-15T13:53:17;97478.27;;;6.62;51.30
50011;BME280;35899;50.352;19.390;2023-03-15T13:55:48;97481.29;;;6.60;51.46
50011;BME280;35899;50.352;19.390;2023-03-15T13:58:18;97485.67;;;6.62;51.67
50011;BME280;35899;50.352;19.390;2023-03-15T14:00:47;97482.23;;;6.61;52.23
50011;BME280;35899;50.352;19.390;2023-03-15T14:03:15;97479.87;;;6.52;51.94
50011;BME280;35899;50.352;19.390;2023-03-15T14:05:47;97481.23;;;6.39;52.59
50011;BME280;35899;50.352;19.390;2023-03-15T14:08:48;97482.90;;;6.37;53.30
50011;BME280;35899;50.352;19.390;2023-03-15T14:13:50;97502.56;;;6.41;53.45
50011;BME280;35899;50.352;19.390;2023-03-15T14:19:20;97504.86;;;6.48;52.52
50011;BME280;35899;50.352;19.390;2023-03-15T14:21:52;97500.27;;;6.44;52.45
50011;BME280;35899;50.352;19.390;2023-03-15T14:24:40;97506.29;;;6.48;52.35
50011;BME280;35899;50.352;19.390;2023-03-15T14:29:42;97507.77;;;6.60;52.33
50011;BME280;35899;50.352;19.390;2023-03-15T14:32:24;97512.20;;;6.52;52.32
50011;BME280;35899;50.352;19.390;2023-03-15T14:34:55;97509.64;;;6.38;52.80
50011;BME280;35899;50.352;19.390;2023-03-15T14:37:44;97509.98;;;6.23;53.11
50011;BME280;35899;50.352;19.390;2023-03-15T14:42:36;97518.02;;;5.88;53.16
50011;BME280;35899;50.352;19.390;2023-03-15T14:45:03;97516.65;;;5.67;53.05